sensor_id;sensor_type;location;lat;lon;timestamp;pressure;altitude;pressure_sealevel;temperature;humidity
60719;BME280;46567;51.660;5.824;2022-08-21T00:07:38;101630.0;;;16.2;68.0
60719;BME280;46567;51.660;5.824;2022-08-21T00:17:38;101640.0;;;16.1;68.5
60719;BME280;46567;51.660;5.824;2022-08-21T00:27:38;101630.0;;;16.0;68.5
60719;BME280;46567;51.660;5.824;2022-08-21T00:57:43;101620.0;;;15.6;69.0
60719;BME280;46567;51.660;5.824;2022-08-21T01:07:38;101630.0;;;15.5;69.5
60719;BME280;46567;51.660;5.824;2022-08-21T01:17:38;101620.0;;;15.3;69.5
60719;BME280;46567;51.660;5.824;2022-08-21T01:27:38;101630.0;;;15.2;70.0
60719;BME280;46567;51.660;5.824;2022-08-21T01:38:02;101630.0;;;15.2;71.0
60719;BME280;46567;51.660;5.824;2022-08-21T01:47:38;101620.0;;;15.2;71.0
60719;BME280;46567;51.660;5.824;2022-08-21T02:07:39;101620.0;;;14.9;71.0
60719;BME280;46567;51.660;5.824;2022-08-21T02:18:05;101610.0;;;14.8;71.0
60719;BME280;46567;51.660;5.824;2022-08-21T02:27:39;101600.0;;;14.7;72.0
60719;BME280;46567;51.660;5.824;2022-08-21T02:38:12;101590.0;;;14.8;72.5
60719;BME280;46567;51.660;5.824;2022-08-21T02:47:38;101600.0;;;14.9;72.5
60719;BME280;46567;51.660;5.824;2022-08-21T02:57:38;101590.0;;;14.9;73.0
60719;BME280;46567;51.660;5.824;2022-08-21T03:07:38;101580.0;;;14.8;73.0
60719;BME280;46567;51.660;5.824;2022-08-21T03:18:04;101570.0;;;14.6;72.5
60719;BME280;46567;51.660;5.824;2022-08-21T03:28:05;101580.0;;;14.4;72.5
60719;BME280;46567;51.660;5.824;2022-08-21T03:37:38;101570.0;;;14.3;72.5
60719;BME280;46567;51.660;5.824;2022-08-21T03:48:04;101560.0;;;14.2;73.5
60719;BME280;46567;51.660;5.824;2022-08-21T03:57:38;101570.0;;;14.1;74.0
60719;BME280;46567;51.660;5.824;2022-08-21T04:07:38;101570.0;;;14.1;74.5
60719;BME280;46567;51.660;5.824;2022-08-21T04:18:03;101570.0;;;14.1;75.0
60719;BME280;46567;51.660;5.824;2022-08-21T04:28:03;101570.0;;;14.1;75.5
60719;BME280;46567;51.660;5.824;2022-08-21T04:47:38;101580.0;;;14.2;76.0
60719;BME280;46567;51.660;5.824;2022-08-21T04:57:39;101580.0;;;14.2;76.5
60719;BME280;46567;51.660;5.824;2022-08-21T05:07:38;101590.0;;;14.3;76.5
60719;BME280;46567;51.660;5.824;2022-08-21T05:17:38;101590.0;;;14.4;77.0
60719;BME280;46567;51.660;5.824;2022-08-21T05:37:38;101600.0;;;14.7;77.5
60719;BME280;46567;51.660;5.824;2022-08-21T06:07:38;101610.0;;;15.3;78.0
60719;BME280;46567;51.660;5.824;2022-08-21T06:17:38;101610.0;;;15.5;78.0
60719;BME280;46567;51.660;5.824;2022-08-21T06:37:38;101610.0;;;16.4;78.0
60719;BME280;46567;51.660;5.824;2022-08-21T06:57:38;101610.0;;;17.8;77.5
60719;BME280;46567;51.660;5.824;2022-08-21T07:07:38;101610.0;;;18.6;77.0
60719;BME280;46567;51.660;5.824;2022-08-21T07:17:38;101610.0;;;19.4;76.0
60719;BME280;46567;51.660;5.824;2022-08-21T07:27:38;101610.0;;;20.1;75.0
60719;BME280;46567;51.660;5.824;2022-08-21T07:37:38;101610.0;;;20.6;73.0
60719;BME280;46567;51.660;5.824;2022-08-21T07:47:38;101590.0;;;21.1;72.5
60719;BME280;46567;51.660;5.824;2022-08-21T07:57:38;101600.0;;;21.5;71.5
60719;BME280;46567;51.660;5.824;2022-08-21T08:07:38;101600.0;;;21.8;71.5
60719;BME280;46567;51.660;5.824;2022-08-21T08:17:38;101590.0;;;22.1;70.0
60719;BME280;46567;51.660;5.824;2022-08-21T08:27:38;101600.0;;;22.5;70.0
60719;BME280;46567;51.660;5.824;2022-08-21T08:37:38;101590.0;;;22.9;69.0
60719;BME280;46567;51.660;5.824;2022-08-21T08:47:43;101570.0;;;23.1;68.0
60719;BME280;46567;51.660;5.824;2022-08-21T08:57:42;101570.0;;;23.3;68.0
60719;BME280;46567;51.660;5.824;2022-08-21T09:08:04;101560.0;;;23.5;67.0
60719;BME280;46567;51.660;5.824;2022-08-21T09:18:42;101570.0;;;23.5;65.5
60719;BME280;46567;51.660;5.824;2022-08-21T09:27:38;101550.0;;;23.5;65.5
60719;BME280;46567;51.660;5.824;2022-08-21T09:37:51;101550.0;;;24.1;65.0
60719;BME280;46567;51.660;5.824;2022-08-21T09:47:38;101550.0;;;24.4;62.0
60719;BME280;46567;51.660;5.824;2022-08-21T09:57:38;101550.0;;;24.7;61.5
60719;BME280;46567;51.660;5.824;2022-08-21T10:07:38;101550.0;;;24.9;61.0
60719;BME280;46567;51.660;5.824;2022-08-21T10:18:13;101550.0;;;25.0;60.0
60719;BME280;46567;51.660;5.824;2022-08-21T10:27:59;101540.0;;;25.1;60.0
60719;BME280;46567;51.660;5.824;2022-08-21T10:38:59;101540.0;;;25.2;58.0
60719;BME280;46567;51.660;5.824;2022-08-21T10:48:29;101540.0;;;25.7;58.5
60719;BME280;46567;51.660;5.824;2022-08-21T10:58:05;101550.0;;;26.0;56.0
60719;BME280;46567;51.660;5.824;2022-08-21T11:07:45;101540.0;;;25.9;55.5
60719;BME280;46567;51.660;5.824;2022-08-21T11:17:43;101540.0;;;25.9;55.0
60719;BME280;46567;51.660;5.824;2022-08-21T11:27:42;101540.0;;;26.2;54.5
60719;BME280;46567;51.660;5.824;2022-08-21T11:38:22;101530.0;;;26.4;53.5
60719;BME280;46567;51.660;5.824;2022-08-21T11:48:02;101530.0;;;26.3;52.0
60719;BME280;46567;51.660;5.824;2022-08-21T11:57:42;101520.0;;;26.3;52.5
60719;BME280;46567;51.660;5.824;2022-08-21T12:07:41;101530.0;;;26.4;52.5
60719;BME280;46567;51.660;5.824;2022-08-21T12:17:40;101550.0;;;26.7;51.5
60719;BME280;46567;51.660;5.824;2022-08-21T12:27:47;101540.0;;;26.6;51.0
60719;BME280;46567;51.660;5.824;2022-08-21T12:37:44;101540.0;;;26.5;50.5
60719;BME280;46567;51.660;5.824;2022-08-21T12:47:48;101540.0;;;26.6;50.0
60719;BME280;46567;51.660;5.824;2022-08-21T12:57:40;101530.0;;;27.0;50.0
60719;BME280;46567;51.660;5.824;2022-08-21T13:07:43;101530.0;;;27.5;48.5
60719;BME280;46567;51.660;5.824;2022-08-21T13:17:46;101530.0;;;27.6;47.0
60719;BME280;46567;51.660;5.824;2022-08-21T13:27:38;101530.0;;;27.7;46.0
60719;BME280;46567;51.660;5.824;2022-08-21T13:37:39;101520.0;;;27.9;45.5
60719;BME280;46567;51.660;5.824;2022-08-21T13:47:38;101530.0;;;27.7;45.5
60719;BME280;46567;51.660;5.824;2022-08-21T13:57:38;101520.0;;;27.6;45.5
60719;BME280;46567;51.660;5.824;2022-08-21T14:07:40;101520.0;;;27.6;46.0
60719;BME280;46567;51.660;5.824;2022-08-21T14:17:40;101500.0;;;27.8;45.0
60719;BME280;46567;51.660;5.824;2022-08-21T14:27:50;101490.0;;;28.3;43.0
60719;BME280;46567;51.660;5.824;2022-08-21T14:37:41;101500.0;;;28.7;42.5
60719;BME280;46567;51.660;5.824;2022-08-21T14:47:38;101490.0;;;28.5;42.5
60719;BME280;46567;51.660;5.824;2022-08-21T14:57:38;101500.0;;;28.4;42.5
60719;BME280;46567;51.660;5.824;2022-08-21T15:07:38;101500.0;;;28.0;41.5
60719;BME280;46567;51.660;5.824;2022-08-21T15:17:38;101500.0;;;27.7;42.5
60719;BME280;46567;51.660;5.824;2022-08-21T15:27:38;101510.0;;;27.4;43.0
60719;BME280;46567;51.660;5.824;2022-08-21T15:37:38;101510.0;;;27.5;42.5
60719;BME280;46567;51.660;5.824;2022-08-21T15:47:42;101510.0;;;27.2;42.0
60719;BME280;46567;51.660;5.824;2022-08-21T15:57:43;101500.0;;;27.0;42.5
60719;BME280;46567;51.660;5.824;2022-08-21T16:07:39;101510.0;;;26.7;42.5
60719;BME280;46567;51.660;5.824;2022-08-21T16:17:40;101510.0;;;26.6;43.0
60719;BME280;46567;51.660;5.824;2022-08-21T16:27:39;101510.0;;;26.5;43.5
60719;BME280;46567;51.660;5.824;2022-08-21T16:37:38;101500.0;;;26.3;43.5
60719;BME280;46567;51.660;5.824;2022-08-21T16:47:38;101500.0;;;26.3;44.0
60719;BME280;46567;51.660;5.824;2022-08-21T16:57:38;101510.0;;;26.1;44.0
60719;BME280;46567;51.660;5.824;2022-08-21T17:07:40;101510.0;;;25.9;44.5
60719;BME280;46567;51.660;5.824;2022-08-21T17:17:38;101510.0;;;25.7;45.0
60719;BME280;46567;51.660;5.824;2022-08-21T17:27:39;101500.0;;;25.5;45.5
60719;BME280;46567;51.660;5.824;2022-08-21T17:37:39;101510.0;;;25.1;46.0
60719;BME280;46567;51.660;5.824;2022-08-21T17:47:38;101510.0;;;24.8;46.5
60719;BME280;46567;51.660;5.824;2022-08-21T17:57:39;101510.0;;;24.4;47.0
60719;BME280;46567;51.660;5.824;2022-08-21T18:07:39;101520.0;;;24.0;47.5
60719;BME280;46567;51.660;5.824;2022-08-21T18:17:39;101520.0;;;23.7;48.5
60719;BME280;46567;51.660;5.824;2022-08-21T18:27:39;101520.0;;;23.4;48.5
60719;BME280;46567;51.660;5.824;2022-08-21T18:37:38;101530.0;;;23.1;49.0
60719;BME280;46567;51.660;5.824;2022-08-21T18:47:44;101540.0;;;22.9;49.0
60719;BME280;46567;51.660;5.824;2022-08-21T18:57:39;101540.0;;;22.6;50.0
60719;BME280;46567;51.660;5.824;2022-08-21T19:07:38;101540.0;;;22.4;50.5
60719;BME280;46567;51.660;5.824;2022-08-21T19:17:39;101550.0;;;22.2;51.0
60719;BME280;46567;51.660;5.824;2022-08-21T19:27:38;101550.0;;;22.1;51.0
60719;BME280;46567;51.660;5.824;2022-08-21T19:37:38;101550.0;;;21.9;52.0
60719;BME280;46567;51.660;5.824;2022-08-21T19:47:41;101560.0;;;21.7;53.0
60719;BME280;46567;51.660;5.824;2022-08-21T19:57:38;101550.0;;;21.4;53.5
60719;BME280;46567;51.660;5.824;2022-08-21T20:07:38;101560.0;;;21.1;54.5
60719;BME280;46567;51.660;5.824;2022-08-21T20:17:38;101570.0;;;20.9;55.0
60719;BME280;46567;51.660;5.824;2022-08-21T20:27:40;101570.0;;;20.7;55.5
60719;BME280;46567;51.660;5.824;2022-08-21T20:37:38;101560.0;;;20.5;56.0
60719;BME280;46567;51.660;5.824;2022-08-21T20:47:38;101570.0;;;20.3;56.5
60719;BME280;46567;51.660;5.824;2022-08-21T20:57:44;101560.0;;;20.2;57.0
60719;BME280;46567;51.660;5.824;2022-08-21T21:07:47;101570.0;;;20.1;57.0
60719;BME280;46567;51.660;5.824;2022-08-21T21:17:46;101560.0;;;20.0;57.5
60719;BME280;46567;51.660;5.824;2022-08-21T21:27:57;101560.0;;;19.8;58.5
60719;BME280;46567;51.660;5.824;2022-08-21T21:37:42;101550.0;;;19.6;59.0
60719;BME280;46567;51.660;5.824;2022-08-21T21:49:07;101570.0;;;19.5;59.5
60719;BME280;46567;51.660;5.824;2022-08-21T22:00:44;101570.0;;;19.4;59.5
60719;BME280;46567;51.660;5.824;2022-08-21T22:09:49;101570.0;;;19.3;60.5
60719;BME280;46567;51.660;5.824;2022-08-21T22:17:45;101570.0;;;19.2;60.5
60719;BME280;46567;51.660;5.824;2022-08-21T22:27:43;101560.0;;;19.0;61.0
60719;BME280;46567;51.660;5.824;2022-08-21T22:37:44;101570.0;;;18.7;62.0
60719;BME280;46567;51.660;5.824;2022-08-21T22:47:43;101560.0;;;18.6;62.5
60719;BME280;46567;51.660;5.824;2022-08-21T22:57:38;101550.0;;;18.4;63.0
60719;BME280;46567;51.660;5.824;2022-08-21T23:07:41;101560.0;;;18.3;63.5
60719;BME280;46567;51.660;5.824;2022-08-21T23:17:47;101560.0;;;18.2;63.5
60719;BME280;46567;51.660;5.824;2022-08-21T23:29:00;101550.0;;;18.1;64.0
60719;BME280;46567;51.660;5.824;2022-08-21T23:40:19;101550.0;;;18.1;64.5
60719;BME280;46567;51.660;5.824;2022-08-21T23:50:25;101540.0;;;18.0;64.5
